Laida — EAVE — position and weather

sailwx.info

Track history (hours):
 
Tides and Currents Weather Stations Pressure Air Temp Water Temp Dewpoint Dewpoint Depression Visibility Wind Speed Wind Dir Waves Ship Positions

Laida

Last reported at 2015-Aug-05 11:31 UTC. Time now 2015-Aug-05 12:31 UTC.
Position N 53°06' E 008°44'.

Length 100 m; draft 5.9 m.

Type: Cargo ship. MMSI: 224509000.

Date/timePositionNaut miles runAvg speedWind from/ knotsBaromVisibWave heightAir tempDewpointWater temp
2015-Aug-05 11:31N 53°06' E 008°44'0 0.0
2015-Aug-05 10:31N 53°06' E 008°44'0 0.0
2015-Aug-05 09:31N 53°06' E 008°44'0 0.0
2015-Aug-05 08:31N 53°06' E 008°44'0 0.0
2015-Aug-05 07:30N 53°06' E 008°44'0 0.0
2015-Aug-05 06:30N 53°06' E 008°44'0 0.0
2015-Aug-05 05:30N 53°06' E 008°44'0 0.0
2015-Aug-05 04:31N 53°06' E 008°44'0 0.0
2015-Aug-05 03:30N 53°06' E 008°44'0 0.0
2015-Aug-05 02:31N 53°06' E 008°44'0 0.0
2015-Aug-05 01:30N 53°06' E 008°44'0 0.0
2015-Aug-05 00:30N 53°06' E 008°44'0 0.0
2015-Aug-04 23:30N 53°06' E 008°44'0 0.0
2015-Aug-04 22:31N 53°06' E 008°44'0 0.0
2015-Aug-04 21:30N 53°06' E 008°44'0 0.0
2015-Aug-04 20:31N 53°06' E 008°44'0 0.0
2015-Aug-04 19:31N 53°06' E 008°44'0 0.0
2015-Aug-04 18:30N 53°06' E 008°44'0 0.0
2015-Aug-04 17:31N 53°06' E 008°44'0 0.0
2015-Aug-04 16:31N 53°06' E 008°44'0 0.0
2015-Aug-04 15:31N 53°06' E 008°44'0 0.0
2015-Aug-04 14:31N 53°06' E 008°44'2 1.6
2015-Aug-04 13:34N 53°07' E 008°42'1010.5
2015-Aug-04 12:34N 53°14' E 008°29'1413.7
2015-Aug-04 11:33N 53°28' E 008°30'1111.1
2015-Aug-04 10:34N 53°39' E 008°25'1414.3
2015-Aug-04 09:33N 53°48' E 008°07'1312.9
2015-Aug-04 08:33N 53°53' E 007°47'1211.9
2015-Aug-04 07:33N 53°53' E 007°27'3811.5
2015-Aug-04 04:13N 53°45' E 006°23'811.6
2015-Aug-04 03:32N 53°43' E 006°10'1411.8
2015-Aug-04 02:19N 53°38' E 005°48'911.9
2015-Aug-04 01:33N 53°35' E 005°33'1211.9
2015-Aug-04 00:33N 53°31' E 005°14'4711.7
2015-Aug-03 20:33N 52°57' E 004°20'1212.5
2015-Aug-03 19:33N 52°47' E 004°08'1212.4
2015-Aug-03 18:33N 52°40' E 003°51'1312.8
2015-Aug-03 17:32N 52°31' E 003°35'1313.3
2015-Aug-03 16:32N 52°21' E 003°22'5513.1
2015-Aug-03 12:20N 51°37' E 002°27'911.5
2015-Aug-03 11:33N 51°31' E 002°17'1010.4
2015-Aug-03 10:33N 51°22' E 002°09'10 9.6
2015-Aug-03 09:33N 51°13' E 002°03'1010.0
2015-Aug-03 08:33N 51°08' E 001°49'10 9.9
2015-Aug-03 07:33N 51°01' E 001°38'1210.8
2015-Aug-03 06:29N 50°51' E 001°27'8812.2
2015-Aug-02 23:15N 50°12' W 000°36'1115.9
2015-Aug-02 22:33N 50°09' W 000°53'1716.5
2015-Aug-02 21:33N 50°04' W 001°18'3316.7
2015-Aug-02 19:33N 49°55' W 002°08'29312.1
2015-Aug-01 19:17N 46°28' W 007°19'  
2015-Jul-29 00:30N 39°20' W 009°43'1212.2
2015-Jul-28 23:33N 39°08' W 009°43'1212.1
2015-Jul-28 22:33N 38°56' W 009°43'1211.9
2015-Jul-28 21:34N 38°44' W 009°42'9 9.4
2015-Jul-28 20:33N 38°38' W 009°33'1211.6
2015-Jul-28 19:33N 38°40' W 009°18'1010.4
2015-Jul-28 18:33N 38°44' W 009°06'0 0.0
2015-Jul-28 17:33N 38°44' W 009°06'0 0.0
2015-Jul-28 16:33N 38°44' W 009°06'0 0.0
2015-Jul-28 15:33N 38°44' W 009°06'0 0.0
2015-Jul-28 14:33N 38°44' W 009°06'0 0.0
2015-Jul-28 13:33N 38°44' W 009°06'0 0.0
2015-Jul-28 12:33N 38°44' W 009°06'0 0.0
2015-Jul-28 11:33N 38°44' W 009°06'0 0.0
2015-Jul-28 10:33N 38°44' W 009°06'0 0.0
2015-Jul-28 09:33N 38°44' W 009°06'0 0.0
2015-Jul-28 08:33N 38°44' W 009°06'0 0.0
2015-Jul-28 07:33N 38°44' W 009°06'0 0.0
2015-Jul-28 06:30N 38°44' W 009°06'0 0.0
2015-Jul-28 05:34N 38°44' W 009°06'6 6.3
2015-Jul-28 04:33N 38°41' W 009°13'7 6.8
2015-Jul-28 03:33N 38°38' W 009°21'3 3.2
2015-Jul-28 02:33N 38°40' W 009°25'0 0.1
2015-Jul-28 01:33N 38°40' W 009°25'0 0.0
2015-Jul-28 00:33N 38°40' W 009°25'0 0.0
2015-Jul-27 23:27N 38°40' W 009°25'0 0.0
2015-Jul-27 22:33N 38°40' W 009°25'0 0.0
2015-Jul-27 21:30N 38°40' W 009°25'0 0.1
2015-Jul-27 20:33N 38°40' W 009°25'0 0.0
2015-Jul-27 19:33N 38°40' W 009°25'0 0.0
2015-Jul-27 18:33N 38°40' W 009°25'0 0.0
2015-Jul-27 16:18N 38°40' W 009°25'0 0.0
2015-Jul-27 15:33N 38°40' W 009°25'0 0.0
2015-Jul-27 12:27N 38°40' W 009°25'0 0.0
2015-Jul-27 10:33N 38°40' W 009°25'0 0.1
2015-Jul-27 09:33N 38°40' W 009°25'0 0.0
2015-Jul-27 07:27N 38°40' W 009°25'0 0.1
2015-Jul-27 05:33N 38°40' W 009°25'0 0.0
2015-Jul-27 03:33N 38°40' W 009°25'0 0.0
2015-Jul-27 02:33N 38°40' W 009°25'0 0.0
2015-Jul-27 01:33N 38°40' W 009°25'0 0.0
2015-Jul-27 00:33N 38°40' W 009°25'0 0.0
2015-Jul-26 23:33N 38°40' W 009°25'0 0.0
2015-Jul-26 22:33N 38°40' W 009°25'0 0.0
2015-Jul-26 21:33N 38°40' W 009°25'0 0.0
2015-Jul-26 20:33N 38°40' W 009°25'0 0.1
2015-Jul-26 19:33N 38°40' W 009°25'0 0.1
2015-Jul-26 18:33N 38°40' W 009°25'0 0.1
2015-Jul-26 17:33N 38°40' W 009°25'0 0.0
2015-Jul-26 16:33N 38°40' W 009°25'0 0.0
2015-Jul-26 15:33N 38°40' W 009°25'0 0.0
2015-Jul-26 14:33N 38°40' W 009°25'0 0.0
2015-Jul-26 13:33N 38°40' W 009°25'0 0.1
2015-Jul-26 12:33N 38°40' W 009°25'0 0.0
2015-Jul-26 11:33N 38°40' W 009°25'  
Track history (hours):
 
Tides and Currents Weather Stations Pressure Air Temp Water Temp Dewpoint Dewpoint Depression Visibility Wind Speed Wind Dir Waves Ship Positions

Laida

Last reported at 2015-Aug-05 11:31 UTC. Time now 2015-Aug-05 12:31 UTC.
Position N 53°06' E 008°44'.

Length 100 m; draft 5.9 m.

Type: Cargo ship. MMSI: 224509000.

Date/timePositionNaut miles runAvg speedWind from/ knotsBaromVisibWave heightAir tempDewpointWater temp
2015-Aug-05 11:31N 53°06' E 008°44'0 0.0
2015-Aug-05 10:31N 53°06' E 008°44'0 0.0
2015-Aug-05 09:31N 53°06' E 008°44'0 0.0
2015-Aug-05 08:31N 53°06' E 008°44'0 0.0
2015-Aug-05 07:30N 53°06' E 008°44'0 0.0
2015-Aug-05 06:30N 53°06' E 008°44'0 0.0
2015-Aug-05 05:30N 53°06' E 008°44'0 0.0
2015-Aug-05 04:31N 53°06' E 008°44'0 0.0
2015-Aug-05 03:30N 53°06' E 008°44'0 0.0
2015-Aug-05 02:31N 53°06' E 008°44'0 0.0
2015-Aug-05 01:30N 53°06' E 008°44'0 0.0
2015-Aug-05 00:30N 53°06' E 008°44'0 0.0
2015-Aug-04 23:30N 53°06' E 008°44'0 0.0
2015-Aug-04 22:31N 53°06' E 008°44'0 0.0
2015-Aug-04 21:30N 53°06' E 008°44'0 0.0
2015-Aug-04 20:31N 53°06' E 008°44'0 0.0
2015-Aug-04 19:31N 53°06' E 008°44'0 0.0
2015-Aug-04 18:30N 53°06' E 008°44'0 0.0
2015-Aug-04 17:31N 53°06' E 008°44'0 0.0
2015-Aug-04 16:31N 53°06' E 008°44'0 0.0
2015-Aug-04 15:31N 53°06' E 008°44'0 0.0
2015-Aug-04 14:31N 53°06' E 008°44'2 1.6
2015-Aug-04 13:34N 53°07' E 008°42'1010.5
2015-Aug-04 12:34N 53°14' E 008°29'1413.7
2015-Aug-04 11:33N 53°28' E 008°30'1111.1
2015-Aug-04 10:34N 53°39' E 008°25'1414.3
2015-Aug-04 09:33N 53°48' E 008°07'1312.9
2015-Aug-04 08:33N 53°53' E 007°47'1211.9
2015-Aug-04 07:33N 53°53' E 007°27'3811.5
2015-Aug-04 04:13N 53°45' E 006°23'811.6
2015-Aug-04 03:32N 53°43' E 006°10'1411.8
2015-Aug-04 02:19N 53°38' E 005°48'911.9
2015-Aug-04 01:33N 53°35' E 005°33'1211.9
2015-Aug-04 00:33N 53°31' E 005°14'4711.7
2015-Aug-03 20:33N 52°57' E 004°20'1212.5
2015-Aug-03 19:33N 52°47' E 004°08'1212.4
2015-Aug-03 18:33N 52°40' E 003°51'1312.8
2015-Aug-03 17:32N 52°31' E 003°35'1313.3
2015-Aug-03 16:32N 52°21' E 003°22'5513.1
2015-Aug-03 12:20N 51°37' E 002°27'911.5
2015-Aug-03 11:33N 51°31' E 002°17'1010.4
2015-Aug-03 10:33N 51°22' E 002°09'10 9.6
2015-Aug-03 09:33N 51°13' E 002°03'1010.0
2015-Aug-03 08:33N 51°08' E 001°49'10 9.9
2015-Aug-03 07:33N 51°01' E 001°38'1210.8
2015-Aug-03 06:29N 50°51' E 001°27'8812.2
2015-Aug-02 23:15N 50°12' W 000°36'1115.9
2015-Aug-02 22:33N 50°09' W 000°53'1716.5
2015-Aug-02 21:33N 50°04' W 001°18'3316.7
2015-Aug-02 19:33N 49°55' W 002°08'29312.1
2015-Aug-01 19:17N 46°28' W 007°19'  
2015-Jul-29 00:30N 39°20' W 009°43'1212.2
2015-Jul-28 23:33N 39°08' W 009°43'1212.1
2015-Jul-28 22:33N 38°56' W 009°43'1211.9
2015-Jul-28 21:34N 38°44' W 009°42'9 9.4
2015-Jul-28 20:33N 38°38' W 009°33'1211.6
2015-Jul-28 19:33N 38°40' W 009°18'1010.4
2015-Jul-28 18:33N 38°44' W 009°06'0 0.0
2015-Jul-28 17:33N 38°44' W 009°06'0 0.0
2015-Jul-28 16:33N 38°44' W 009°06'0 0.0
2015-Jul-28 15:33N 38°44' W 009°06'0 0.0
2015-Jul-28 14:33N 38°44' W 009°06'0 0.0
2015-Jul-28 13:33N 38°44' W 009°06'0 0.0
2015-Jul-28 12:33N 38°44' W 009°06'0 0.0
2015-Jul-28 11:33N 38°44' W 009°06'0 0.0
2015-Jul-28 10:33N 38°44' W 009°06'0 0.0
2015-Jul-28 09:33N 38°44' W 009°06'0 0.0
2015-Jul-28 08:33N 38°44' W 009°06'0 0.0
2015-Jul-28 07:33N 38°44' W 009°06'0 0.0
2015-Jul-28 06:30N 38°44' W 009°06'0 0.0
2015-Jul-28 05:34N 38°44' W 009°06'6 6.3
2015-Jul-28 04:33N 38°41' W 009°13'7 6.8
2015-Jul-28 03:33N 38°38' W 009°21'3 3.2
2015-Jul-28 02:33N 38°40' W 009°25'0 0.1
2015-Jul-28 01:33N 38°40' W 009°25'0 0.0
2015-Jul-28 00:33N 38°40' W 009°25'0 0.0
2015-Jul-27 23:27N 38°40' W 009°25'0 0.0
2015-Jul-27 22:33N 38°40' W 009°25'0 0.0
2015-Jul-27 21:30N 38°40' W 009°25'0 0.1
2015-Jul-27 20:33N 38°40' W 009°25'0 0.0
2015-Jul-27 19:33N 38°40' W 009°25'0 0.0
2015-Jul-27 18:33N 38°40' W 009°25'0 0.0
2015-Jul-27 16:18N 38°40' W 009°25'0 0.0
2015-Jul-27 15:33N 38°40' W 009°25'0 0.0
2015-Jul-27 12:27N 38°40' W 009°25'0 0.0
2015-Jul-27 10:33N 38°40' W 009°25'0 0.1
2015-Jul-27 09:33N 38°40' W 009°25'0 0.0
2015-Jul-27 07:27N 38°40' W 009°25'0 0.1
2015-Jul-27 05:33N 38°40' W 009°25'0 0.0
2015-Jul-27 03:33N 38°40' W 009°25'0 0.0
2015-Jul-27 02:33N 38°40' W 009°25'0 0.0
2015-Jul-27 01:33N 38°40' W 009°25'0 0.0
2015-Jul-27 00:33N 38°40' W 009°25'0 0.0
2015-Jul-26 23:33N 38°40' W 009°25'0 0.0
2015-Jul-26 22:33N 38°40' W 009°25'0 0.0
2015-Jul-26 21:33N 38°40' W 009°25'0 0.0
2015-Jul-26 20:33N 38°40' W 009°25'0 0.1
2015-Jul-26 19:33N 38°40' W 009°25'0 0.1
2015-Jul-26 18:33N 38°40' W 009°25'0 0.1
2015-Jul-26 17:33N 38°40' W 009°25'0 0.0
2015-Jul-26 16:33N 38°40' W 009°25'0 0.0
2015-Jul-26 15:33N 38°40' W 009°25'0 0.0
2015-Jul-26 14:33N 38°40' W 009°25'0 0.0
2015-Jul-26 13:33N 38°40' W 009°25'0 0.1
2015-Jul-26 12:33N 38°40' W 009°25'0 0.0
2015-Jul-26 11:33N 38°40' W 009°25'  

Dump ship's entire track history